Terminal Aerodrome Forecast
Issued by NWS

Home | Current Version | Previous Version | Text Only | Print | Product List | Glossary Off
Versions: 1 2 3 4 5 6 7 8 9 10 11 12 13

645
FTUS45 KRIW 050523
TAFCPR
TAF
KCPR 050523Z 0506/0606 25009KT P6SM FEW100
     FM051000 22012KT P6SM SCT250
     FM051600 22014G22KT P6SM FEW110
     FM052300 20010KT P6SM SCT110=

USA.gov is the U.S. government's official web portal to all federal, state and local government web resources and services.